createdAt,value
2023-02-09T00:01:20.386Z,-5.15
2023-02-09T00:03:46.807Z,-5.07
2023-02-09T00:06:13.096Z,-5.17
2023-02-09T00:08:39.471Z,-5.31
2023-02-09T00:11:05.897Z,-5.27
2023-02-09T00:13:32.278Z,-5.12
2023-02-09T00:15:58.765Z,-5.09
2023-02-09T00:18:25.116Z,-5.02
2023-02-09T00:20:51.461Z,-5.14
2023-02-09T00:23:17.798Z,-5.17
2023-02-09T00:25:44.218Z,-5.17
2023-02-09T00:28:10.587Z,-5.21
2023-02-09T00:30:36.980Z,-5.26
2023-02-09T00:33:03.301Z,-5.38
2023-02-09T00:35:29.648Z,-5.41
2023-02-09T00:37:56.040Z,-5.52
2023-02-09T00:40:22.364Z,-5.47
2023-02-09T00:42:48.705Z,-5.48
2023-02-09T00:45:15.146Z,-5.58
2023-02-09T00:47:41.487Z,-5.54
2023-02-09T00:50:07.815Z,-5.49
2023-02-09T00:52:34.170Z,-5.38
2023-02-09T00:55:00.526Z,-5.40
2023-02-09T00:57:26.865Z,-5.47
2023-02-09T00:59:53.248Z,-5.56
2023-02-09T01:02:19.580Z,-5.58
2023-02-09T01:04:45.984Z,-5.65
2023-02-09T01:07:12.291Z,-5.67
2023-02-09T01:09:38.675Z,-5.66
2023-02-09T01:12:05.032Z,-5.73
2023-02-09T01:14:31.386Z,-5.86
2023-02-09T01:16:57.781Z,-5.99
2023-02-09T01:19:24.072Z,-6.08
2023-02-09T01:21:50.483Z,-6.00
2023-02-09T01:24:16.799Z,-6.04
2023-02-09T01:26:43.184Z,-6.20
2023-02-09T01:29:09.758Z,-6.33
2023-02-09T01:31:36.280Z,-6.38
2023-02-09T01:34:02.450Z,-6.39
2023-02-09T01:36:28.937Z,-6.47
2023-02-09T01:38:55.264Z,-6.55
2023-02-09T01:41:21.649Z,-6.64
2023-02-09T01:43:48.015Z,-6.73
2023-02-09T01:46:14.528Z,-6.83
2023-02-09T01:48:40.739Z,-6.89
2023-02-09T01:51:07.117Z,-6.98
2023-02-09T01:53:33.508Z,-7.05
2023-02-09T01:55:59.808Z,-7.18
2023-02-09T01:58:26.218Z,-7.22
2023-02-09T02:00:52.575Z,-7.25
2023-02-09T02:03:18.941Z,-7.26
2023-02-09T02:05:45.309Z,-7.32
2023-02-09T02:08:11.705Z,-7.33
2023-02-09T02:10:38.030Z,-7.43
2023-02-09T02:13:04.399Z,-7.46
2023-02-09T02:15:30.765Z,-7.47
2023-02-09T02:17:57.089Z,-7.45
2023-02-09T02:20:23.453Z,-7.49
2023-02-09T02:22:49.793Z,-7.47
2023-02-09T02:25:16.178Z,-7.43
2023-02-09T02:27:42.502Z,-7.43
2023-02-09T02:30:08.879Z,-7.39
2023-02-09T02:32:35.205Z,-7.28
2023-02-09T02:35:01.568Z,-7.25
2023-02-09T02:37:27.911Z,-7.30
2023-02-09T02:39:54.289Z,-7.44
2023-02-09T02:42:20.636Z,-7.49
2023-02-09T02:44:46.998Z,-7.57
2023-02-09T02:47:13.358Z,-7.59
2023-02-09T02:49:39.743Z,-7.60
2023-02-09T02:52:06.105Z,-7.57
2023-02-09T02:54:32.483Z,-7.58
2023-02-09T02:56:58.839Z,-7.59
2023-02-09T02:59:25.184Z,-7.54
2023-02-09T03:01:51.575Z,-7.50
2023-02-09T03:04:17.864Z,-7.54
2023-02-09T03:06:44.268Z,-7.57
2023-02-09T03:09:10.582Z,-7.62
2023-02-09T03:11:36.969Z,-7.57
2023-02-09T03:14:03.362Z,-7.47
2023-02-09T03:16:29.725Z,-7.51
2023-02-09T03:18:56.055Z,-7.54
2023-02-09T03:21:22.366Z,-7.62
2023-02-09T03:23:48.786Z,-7.53
2023-02-09T03:26:15.102Z,-7.48
2023-02-09T03:28:41.461Z,-7.53
2023-02-09T03:31:07.945Z,-7.52
2023-02-09T03:33:34.209Z,-7.48
2023-02-09T03:36:00.545Z,-7.40
2023-02-09T03:38:26.906Z,-7.38
2023-02-09T03:40:53.310Z,-7.36
2023-02-09T03:43:19.660Z,-7.38
2023-02-09T03:45:46.010Z,-7.37
2023-02-09T03:48:12.442Z,-7.34
2023-02-09T03:50:38.794Z,-7.40
2023-02-09T03:53:05.172Z,-7.47
2023-02-09T03:55:31.526Z,-7.36
2023-02-09T03:57:57.887Z,-7.29
2023-02-09T04:00:24.197Z,-7.25
2023-02-09T04:02:50.655Z,-7.24
2023-02-09T04:05:16.889Z,-7.36
2023-02-09T04:07:43.228Z,-7.52
2023-02-09T04:10:09.599Z,-7.57
2023-02-09T04:12:35.940Z,-7.50
2023-02-09T04:15:02.257Z,-7.42
2023-02-09T04:17:28.689Z,-7.32
2023-02-09T04:19:55.010Z,-7.34
2023-02-09T04:22:21.367Z,-7.39
2023-02-09T04:24:47.735Z,-7.47
2023-02-09T04:27:14.093Z,-7.51
2023-02-09T04:29:40.407Z,-7.54
2023-02-09T04:32:06.997Z,-7.59
2023-02-09T04:34:33.201Z,-7.57
2023-02-09T04:36:59.586Z,-7.48
2023-02-09T04:39:25.951Z,-7.50
2023-02-09T04:41:52.324Z,-7.59
2023-02-09T04:44:18.698Z,-7.68
2023-02-09T04:46:45.798Z,-7.64
2023-02-09T04:49:11.467Z,-7.70
2023-02-09T04:51:37.804Z,-7.74
2023-02-09T04:54:04.146Z,-7.78
2023-02-09T04:56:30.524Z,-7.82
2023-02-09T04:58:56.877Z,-7.87
2023-02-09T05:01:23.557Z,-7.86
2023-02-09T05:03:49.932Z,-7.94
2023-02-09T05:06:16.252Z,-8.07
2023-02-09T05:08:42.610Z,-8.13
2023-02-09T05:11:08.985Z,-8.02
2023-02-09T05:13:35.381Z,-8.03
2023-02-09T05:16:01.726Z,-7.98
2023-02-09T05:18:28.331Z,-8.00
2023-02-09T05:20:54.675Z,-8.23
2023-02-09T05:23:20.985Z,-8.31
2023-02-09T05:25:47.402Z,-8.42
2023-02-09T05:28:13.785Z,-8.40
2023-02-09T05:30:40.144Z,-8.30
2023-02-09T05:33:06.566Z,-8.22
2023-02-09T05:35:32.926Z,-8.18
2023-02-09T05:37:59.237Z,-8.05
2023-02-09T05:40:25.622Z,-7.96
2023-02-09T05:42:51.931Z,-7.89
2023-02-09T05:45:18.326Z,-7.81
2023-02-09T05:47:44.675Z,-7.59
2023-02-09T05:50:11.078Z,-7.42
2023-02-09T05:52:37.493Z,-7.22
2023-02-09T05:55:03.808Z,-7.03
2023-02-09T05:57:30.197Z,-6.83
2023-02-09T05:59:56.543Z,-6.62
2023-02-09T06:02:22.979Z,-6.37
2023-02-09T06:04:49.296Z,-5.98
2023-02-09T06:07:15.707Z,-5.59
2023-02-09T06:09:42.029Z,-5.37
2023-02-09T06:12:08.369Z,-5.16
2023-02-09T06:14:34.924Z,-5.17
2023-02-09T06:17:01.305Z,-5.01
2023-02-09T06:19:27.657Z,-4.74
2023-02-09T06:21:54.041Z,-4.49
2023-02-09T06:24:20.362Z,-4.25
2023-02-09T06:26:46.736Z,-3.89
2023-02-09T06:29:13.138Z,-3.73
2023-02-09T06:31:39.552Z,-3.58
2023-02-09T06:34:05.916Z,-3.57
2023-02-09T06:36:32.357Z,-3.55
2023-02-09T06:38:58.662Z,-3.43
2023-02-09T06:41:25.297Z,-3.23
2023-02-09T06:43:51.718Z,-2.86
2023-02-09T06:46:18.155Z,-2.60
2023-02-09T06:48:44.425Z,-2.48
2023-02-09T06:51:10.863Z,-2.21
2023-02-09T06:53:37.197Z,-2.21
2023-02-09T06:56:03.638Z,-1.95
2023-02-09T06:58:30.008Z,-1.94
2023-02-09T07:00:56.342Z,-1.79
2023-02-09T07:03:22.706Z,-1.65
2023-02-09T07:05:49.154Z,-1.50
2023-02-09T07:08:15.672Z,-1.78
2023-02-09T07:10:42.053Z,-1.96
2023-02-09T07:13:08.579Z,-2.03
2023-02-09T07:15:34.932Z,-1.85
2023-02-09T07:18:01.266Z,-1.13
2023-02-09T07:20:27.659Z,-0.93
2023-02-09T07:22:54.018Z,-0.60
2023-02-09T07:25:20.478Z,-0.57
2023-02-09T07:27:46.768Z,-0.50
2023-02-09T07:30:13.189Z,-0.55
2023-02-09T07:32:39.534Z,-0.85
2023-02-09T07:35:05.932Z,-0.63
2023-02-09T07:37:32.324Z,-0.38
2023-02-09T07:39:58.715Z,0.04
2023-02-09T07:42:25.111Z,-0.05
2023-02-09T07:44:51.505Z,-0.05
2023-02-09T07:47:17.833Z,-0.01
2023-02-09T07:49:44.288Z,0.54
2023-02-09T07:52:10.909Z,0.87
2023-02-09T07:54:37.349Z,0.71
2023-02-09T07:57:03.671Z,0.32
2023-02-09T07:59:30.021Z,0.53
2023-02-09T08:01:56.559Z,0.57
2023-02-09T08:04:22.989Z,0.63
2023-02-09T08:06:49.319Z,-0.12
2023-02-09T08:09:15.715Z,-0.35
2023-02-09T08:11:43.950Z,0.15
2023-02-09T08:14:08.614Z,0.44
2023-02-09T08:16:35.053Z,0.56
2023-02-09T08:19:01.416Z,0.84
2023-02-09T08:21:27.747Z,1.21
2023-02-09T08:23:54.126Z,0.90
2023-02-09T08:26:20.447Z,0.97
2023-02-09T08:28:46.992Z,1.51
2023-02-09T08:31:13.190Z,1.40
2023-02-09T08:33:39.975Z,1.35
2023-02-09T08:36:06.304Z,1.39
2023-02-09T08:38:32.703Z,1.50
2023-02-09T08:40:59.070Z,1.47
2023-02-09T08:43:25.412Z,1.70
2023-02-09T08:45:52.296Z,1.82
2023-02-09T08:48:18.368Z,1.38
2023-02-09T08:50:44.797Z,1.62
2023-02-09T08:53:11.201Z,1.23
2023-02-09T08:55:37.513Z,1.27
2023-02-09T08:58:03.892Z,1.97
2023-02-09T09:00:30.191Z,2.28
2023-02-09T09:02:56.795Z,2.25
2023-02-09T09:05:23.198Z,2.37
2023-02-09T09:07:49.528Z,2.46
2023-02-09T09:10:15.895Z,2.57
2023-02-09T09:12:42.232Z,2.53
2023-02-09T09:15:11.741Z,2.55
2023-02-09T09:17:38.129Z,2.97
2023-02-09T09:20:04.778Z,3.36
2023-02-09T09:22:31.211Z,3.12
2023-02-09T09:24:57.552Z,3.17
2023-02-09T09:27:26.106Z,3.05
2023-02-09T09:29:50.288Z,3.38
2023-02-09T09:32:16.722Z,3.25
2023-02-09T09:34:42.980Z,3.33
2023-02-09T09:37:09.372Z,3.60
2023-02-09T09:39:35.708Z,3.51
2023-02-09T09:42:02.101Z,3.90
2023-02-09T09:44:28.464Z,4.23
2023-02-09T09:46:54.861Z,4.55
2023-02-09T09:49:21.739Z,4.90
2023-02-09T09:51:48.100Z,5.07
2023-02-09T09:54:14.425Z,4.68
2023-02-09T09:56:40.811Z,4.70
2023-02-09T09:59:07.280Z,4.93
2023-02-09T10:01:33.694Z,5.16
2023-02-09T10:03:59.995Z,4.87
2023-02-09T10:06:26.605Z,4.65
2023-02-09T10:08:52.927Z,4.27
2023-02-09T10:11:19.268Z,4.44
2023-02-09T10:13:46.834Z,5.15
2023-02-09T10:16:13.169Z,5.37
2023-02-09T10:18:39.586Z,5.18
2023-02-09T10:21:06.401Z,5.52
2023-02-09T10:23:32.798Z,6.03
2023-02-09T10:25:59.161Z,6.57
2023-02-09T10:28:25.558Z,6.59
2023-02-09T10:30:51.952Z,6.17
2023-02-09T10:33:18.265Z,6.24
2023-02-09T10:35:45.063Z,6.21
2023-02-09T10:38:11.067Z,6.35
2023-02-09T10:40:37.492Z,5.97
2023-02-09T10:43:03.847Z,6.03
2023-02-09T10:45:30.197Z,6.00
2023-02-09T10:47:56.607Z,5.41
2023-02-09T10:50:22.946Z,5.06
2023-02-09T10:52:49.287Z,5.55
2023-02-09T10:55:15.662Z,6.19
2023-02-09T10:57:42.084Z,5.95
2023-02-09T11:00:08.466Z,5.81
2023-02-09T11:02:34.802Z,5.34
2023-02-09T11:05:01.164Z,5.05
2023-02-09T11:07:27.500Z,5.25
2023-02-09T11:09:54.021Z,4.96
2023-02-09T11:12:20.348Z,4.57
2023-02-09T11:14:46.732Z,4.32
2023-02-09T11:17:13.092Z,4.51
2023-02-09T11:19:39.518Z,4.97
2023-02-09T11:22:05.914Z,5.08
2023-02-09T11:24:32.245Z,5.13
2023-02-09T11:27:00.732Z,5.48
2023-02-09T11:29:27.063Z,5.75
2023-02-09T11:31:53.837Z,5.60
2023-02-09T11:34:20.123Z,5.64
2023-02-09T11:36:46.442Z,5.53
2023-02-09T11:39:12.934Z,5.23
2023-02-09T11:41:39.361Z,5.90
2023-02-09T11:44:05.647Z,6.07
2023-02-09T11:46:32.022Z,6.06
2023-02-09T11:48:58.330Z,5.61
2023-02-09T11:51:24.761Z,5.43
2023-02-09T11:53:51.112Z,5.76
2023-02-09T11:56:17.431Z,5.68
2023-02-09T11:58:43.957Z,5.71
2023-02-09T12:01:15.898Z,5.78
2023-02-09T12:03:36.684Z,6.33
2023-02-09T12:06:03.076Z,5.73
2023-02-09T12:08:29.473Z,5.47
2023-02-09T12:10:55.829Z,5.40
2023-02-09T12:13:22.203Z,4.59
2023-02-09T12:15:48.728Z,5.08
2023-02-09T12:18:15.128Z,5.64
2023-02-09T12:20:42.605Z,5.71
2023-02-09T12:23:08.959Z,5.96
2023-02-09T12:25:35.313Z,5.59
2023-02-09T12:28:01.872Z,5.39
2023-02-09T12:30:28.144Z,6.08
2023-02-09T12:32:54.525Z,6.41
2023-02-09T12:35:20.934Z,6.57
2023-02-09T12:37:47.319Z,6.53
2023-02-09T12:40:13.753Z,6.46
2023-02-09T12:42:40.086Z,6.32
2023-02-09T12:45:06.564Z,5.79
2023-02-09T12:47:32.917Z,6.32
2023-02-09T12:49:59.238Z,6.53
2023-02-09T12:52:25.813Z,6.48
2023-02-09T12:54:52.171Z,6.06
2023-02-09T12:57:18.517Z,6.33
2023-02-09T12:59:45.096Z,6.73
2023-02-09T13:02:11.462Z,6.57
2023-02-09T13:04:37.893Z,6.09
2023-02-09T13:07:04.557Z,5.93
2023-02-09T13:09:30.897Z,6.07
2023-02-09T13:11:57.248Z,6.44
2023-02-09T13:14:23.631Z,6.55
2023-02-09T13:16:50.078Z,6.45
2023-02-09T13:19:16.427Z,6.31
2023-02-09T13:21:42.772Z,6.68
2023-02-09T13:24:09.124Z,6.34
2023-02-09T13:26:35.477Z,6.14
2023-02-09T13:29:11.634Z,5.84
2023-02-09T13:31:28.498Z,6.19
2023-02-09T13:33:54.783Z,6.15
2023-02-09T13:36:24.979Z,6.00
2023-02-09T13:38:47.675Z,5.98
2023-02-09T13:41:14.549Z,5.40
2023-02-09T13:43:41.099Z,5.63
2023-02-09T13:46:07.464Z,5.68
2023-02-09T13:48:33.810Z,5.36
2023-02-09T13:51:00.277Z,5.23
2023-02-09T13:53:26.591Z,5.08
2023-02-09T13:55:53.032Z,4.44
2023-02-09T13:58:19.363Z,3.87
2023-02-09T14:00:45.791Z,3.78
2023-02-09T14:03:12.683Z,3.79
2023-02-09T14:05:38.912Z,3.92
2023-02-09T14:08:05.228Z,3.99
2023-02-09T14:10:31.568Z,3.89
2023-02-09T14:12:57.938Z,3.41
2023-02-09T14:15:24.722Z,3.28
2023-02-09T14:17:51.418Z,3.28
2023-02-09T14:20:17.760Z,3.33
2023-02-09T14:22:44.122Z,3.35
2023-02-09T14:25:10.525Z,3.33
2023-02-09T14:27:36.888Z,3.24
2023-02-09T14:30:03.336Z,3.05
2023-02-09T14:32:33.099Z,2.90
2023-02-09T14:34:56.022Z,2.47
2023-02-09T14:37:22.401Z,2.31
2023-02-09T14:39:48.758Z,2.13
2023-02-09T14:42:15.403Z,2.03
2023-02-09T14:44:41.814Z,1.95
2023-02-09T14:47:08.158Z,1.91
2023-02-09T14:49:34.828Z,1.81
2023-02-09T14:52:01.969Z,1.79
2023-02-09T14:54:28.329Z,1.61
2023-02-09T14:56:58.490Z,1.48
2023-02-09T14:59:23.527Z,1.48
2023-02-09T15:01:52.400Z,1.40
2023-02-09T15:04:19.663Z,1.31
2023-02-09T15:06:46.420Z,1.31
2023-02-09T15:09:13.338Z,1.31
2023-02-09T15:11:42.995Z,1.28
2023-02-09T15:14:10.516Z,1.21
2023-02-09T15:16:37.924Z,1.00
2023-02-09T15:19:04.389Z,0.91
2023-02-09T15:21:33.186Z,0.79
2023-02-09T15:24:00.781Z,0.71
2023-02-09T15:26:37.104Z,0.69
2023-02-09T15:29:05.754Z,0.70
2023-02-09T15:31:33.223Z,0.68
2023-02-09T15:33:59.614Z,0.60
2023-02-09T15:36:25.870Z,0.43
2023-02-09T15:38:52.249Z,0.30
2023-02-09T15:41:18.614Z,0.30
2023-02-09T15:43:45.007Z,0.30
2023-02-09T15:46:11.403Z,0.26
2023-02-09T15:48:37.717Z,0.13
2023-02-09T15:51:04.011Z,0.11
2023-02-09T15:53:30.757Z,0.01
2023-02-09T15:55:58.779Z,-0.13
2023-02-09T15:58:23.541Z,-0.27
2023-02-09T16:00:49.925Z,-0.37
2023-02-09T16:03:16.331Z,-0.44
2023-02-09T16:05:43.047Z,-0.49
2023-02-09T16:08:11.571Z,-0.45
2023-02-09T16:10:38.067Z,-0.56
2023-02-09T16:13:04.492Z,-0.65
2023-02-09T16:15:33.156Z,-0.72
2023-02-09T16:17:59.486Z,-0.77
2023-02-09T16:20:26.437Z,-0.87
2023-02-09T16:22:52.438Z,-0.85
2023-02-09T16:25:18.796Z,-0.86
2023-02-09T16:27:45.142Z,-0.97
2023-02-09T16:30:13.632Z,-1.04
2023-02-09T16:32:40.138Z,-1.03
2023-02-09T16:35:16.382Z,-1.01
2023-02-09T16:37:32.855Z,-1.02
2023-02-09T16:39:59.266Z,-1.01
2023-02-09T16:42:25.573Z,-1.00
2023-02-09T16:44:51.928Z,-1.03
2023-02-09T16:47:18.300Z,-1.09
2023-02-09T16:49:44.686Z,-1.10
2023-02-09T16:52:11.007Z,-1.00
2023-02-09T16:54:37.404Z,-0.96
2023-02-09T16:57:03.853Z,-1.00
2023-02-09T16:59:30.519Z,-1.00
2023-02-09T17:01:58.056Z,-1.03
2023-02-09T17:04:24.402Z,-1.02
2023-02-09T17:06:50.823Z,-1.00
2023-02-09T17:09:17.249Z,-1.03
2023-02-09T17:11:43.856Z,-1.04
2023-02-09T17:14:10.226Z,-1.09
2023-02-09T17:16:36.588Z,-1.18
2023-02-09T17:19:02.958Z,-1.27
2023-02-09T17:21:29.354Z,-1.22
2023-02-09T17:23:56.849Z,-1.17
2023-02-09T17:26:23.175Z,-1.09
2023-02-09T17:28:49.511Z,-1.15
2023-02-09T17:31:17.903Z,-1.22
2023-02-09T17:33:44.197Z,-1.24
2023-02-09T17:36:25.707Z,-1.23
2023-02-09T17:38:37.705Z,-1.30
2023-02-09T17:41:04.028Z,-1.38
2023-02-09T17:43:31.315Z,-1.41
2023-02-09T17:45:57.738Z,-1.45
2023-02-09T17:48:24.398Z,-1.46
2023-02-09T17:50:53.170Z,-1.45
2023-02-09T17:53:19.762Z,-1.53
2023-02-09T17:55:46.383Z,-1.59
2023-02-09T17:58:12.472Z,-1.73
2023-02-09T18:00:38.965Z,-1.76
2023-02-09T18:03:05.473Z,-1.81
2023-02-09T18:05:31.991Z,-1.84
2023-02-09T18:07:58.404Z,-1.95
2023-02-09T18:10:24.792Z,-2.02
2023-02-09T18:12:53.441Z,-2.08
2023-02-09T18:15:19.868Z,-2.10
2023-02-09T18:17:49.972Z,-2.10
2023-02-09T18:20:16.308Z,-2.10
2023-02-09T18:22:42.698Z,-2.19
2023-02-09T18:25:09.032Z,-2.22
2023-02-09T18:27:35.417Z,-2.23
2023-02-09T18:30:01.810Z,-2.25
2023-02-09T18:32:28.140Z,-2.28
2023-02-09T18:34:54.576Z,-2.37
2023-02-09T18:37:21.280Z,-2.37
2023-02-09T18:39:47.603Z,-2.42
2023-02-09T18:42:13.992Z,-2.53
2023-02-09T18:44:40.426Z,-2.64
2023-02-09T18:47:06.806Z,-2.70
2023-02-09T18:49:33.102Z,-2.75
2023-02-09T18:51:59.636Z,-2.73
2023-02-09T18:54:28.338Z,-2.73
2023-02-09T18:56:53.490Z,-2.76
2023-02-09T18:59:19.894Z,-2.81
2023-02-09T19:01:46.308Z,-2.78
2023-02-09T19:04:12.609Z,-2.78
2023-02-09T19:06:38.965Z,-2.79
2023-02-09T19:09:05.331Z,-2.80
2023-02-09T19:11:32.750Z,-2.80
2023-02-09T19:13:59.362Z,-2.76
2023-02-09T19:16:25.773Z,-2.73
2023-02-09T19:18:52.324Z,-2.80
2023-02-09T19:21:18.877Z,-2.92
2023-02-09T19:23:45.309Z,-2.98
2023-02-09T19:26:11.706Z,-3.02
2023-02-09T19:28:38.080Z,-3.07
2023-02-09T19:31:04.487Z,-3.12
2023-02-09T19:33:30.904Z,-3.17
2023-02-09T19:35:57.395Z,-3.18
2023-02-09T19:38:23.778Z,-3.15
2023-02-09T19:40:52.649Z,-3.16
2023-02-09T19:43:16.650Z,-3.14
2023-02-09T19:45:43.050Z,-3.13
2023-02-09T19:48:09.382Z,-3.12
2023-02-09T19:50:35.737Z,-3.14
2023-02-09T19:53:02.220Z,-3.16
2023-02-09T19:55:28.607Z,-3.13
2023-02-09T19:57:54.929Z,-3.13
2023-02-09T20:00:21.339Z,-3.14
2023-02-09T20:02:48.147Z,-3.14
2023-02-09T20:05:14.418Z,-3.21
2023-02-09T20:07:40.942Z,-3.19
2023-02-09T20:10:07.331Z,-3.22
2023-02-09T20:12:33.716Z,-3.22
2023-02-09T20:15:00.124Z,-3.24
2023-02-09T20:17:26.473Z,-3.27
2023-02-09T20:19:52.834Z,-3.30
2023-02-09T20:22:19.178Z,-3.33
2023-02-09T20:24:45.568Z,-3.37
2023-02-09T20:27:11.911Z,-3.36
2023-02-09T20:29:38.389Z,-3.37
2023-02-09T20:32:04.754Z,-3.39
2023-02-09T20:34:31.114Z,-3.40
2023-02-09T20:36:57.592Z,-3.41
2023-02-09T20:39:24.065Z,-3.43
2023-02-09T20:41:50.745Z,-3.43
2023-02-09T20:44:17.498Z,-3.47
2023-02-09T20:46:43.824Z,-3.49
2023-02-09T20:49:10.229Z,-3.50
2023-02-09T20:51:36.567Z,-3.52
2023-02-09T20:54:02.940Z,-3.51
2023-02-09T20:56:29.310Z,-3.53
2023-02-09T20:58:55.688Z,-3.53
2023-02-09T21:01:22.086Z,-3.55
2023-02-09T21:03:48.464Z,-3.56
2023-02-09T21:06:15.801Z,-3.61
2023-02-09T21:08:42.240Z,-3.60
2023-02-09T21:11:08.596Z,-3.53
2023-02-09T21:13:35.001Z,-3.47
2023-02-09T21:16:03.290Z,-3.54
2023-02-09T21:18:28.004Z,-3.55
2023-02-09T21:20:54.317Z,-3.51
2023-02-09T21:23:20.920Z,-3.57
2023-02-09T21:25:47.454Z,-3.67
2023-02-09T21:28:13.888Z,-3.73
2023-02-09T21:30:40.863Z,-3.77
2023-02-09T21:33:06.544Z,-3.80
2023-02-09T21:35:32.853Z,-3.78
2023-02-09T21:37:59.291Z,-3.79
2023-02-09T21:40:25.651Z,-3.86
2023-02-09T21:42:52.030Z,-3.97
2023-02-09T21:45:18.480Z,-4.02
2023-02-09T21:47:45.077Z,-4.03
2023-02-09T21:50:11.477Z,-4.06
2023-02-09T21:52:37.832Z,-4.09
2023-02-09T21:55:04.389Z,-4.13
2023-02-09T21:57:30.704Z,-4.10
2023-02-09T21:59:57.066Z,-4.05
2023-02-09T22:02:23.456Z,-4.06
2023-02-09T22:04:49.863Z,-4.16
2023-02-09T22:07:16.321Z,-4.18
2023-02-09T22:09:42.712Z,-4.21
2023-02-09T22:12:09.067Z,-4.24
2023-02-09T22:14:35.428Z,-4.25
2023-02-09T22:17:01.823Z,-4.27
2023-02-09T22:19:28.202Z,-4.30
2023-02-09T22:21:54.561Z,-4.32
2023-02-09T22:24:20.874Z,-4.31
2023-02-09T22:26:47.261Z,-4.35
2023-02-09T22:29:13.825Z,-4.40
2023-02-09T22:31:40.777Z,-4.46
2023-02-09T22:34:07.047Z,-4.49
2023-02-09T22:36:33.430Z,-4.47
2023-02-09T22:38:59.804Z,-4.51
2023-02-09T22:41:26.196Z,-4.54
2023-02-09T22:43:52.547Z,-4.55
2023-02-09T22:46:18.971Z,-4.55
2023-02-09T22:48:45.244Z,-4.59
2023-02-09T22:51:11.582Z,-4.61
2023-02-09T22:53:37.998Z,-4.61
2023-02-09T22:56:04.334Z,-4.63
2023-02-09T22:58:30.684Z,-4.62
2023-02-09T23:00:57.137Z,-4.64
2023-02-09T23:03:23.460Z,-4.67
2023-02-09T23:05:49.964Z,-4.69
2023-02-09T23:08:16.504Z,-4.68
2023-02-09T23:10:42.896Z,-4.66
2023-02-09T23:13:09.293Z,-4.73
2023-02-09T23:15:35.746Z,-4.74
2023-02-09T23:18:02.060Z,-4.73
2023-02-09T23:20:28.404Z,-4.68
2023-02-09T23:22:54.847Z,-4.66
2023-02-09T23:25:21.209Z,-4.64
2023-02-09T23:27:47.532Z,-4.60
2023-02-09T23:30:13.873Z,-4.59
2023-02-09T23:32:40.249Z,-4.60
2023-02-09T23:35:06.615Z,-4.56
2023-02-09T23:37:39.902Z,-4.50
2023-02-09T23:39:59.357Z,-4.49
2023-02-09T23:42:25.667Z,-4.47
2023-02-09T23:44:52.022Z,-4.46
2023-02-09T23:47:18.354Z,-4.47
2023-02-09T23:49:44.692Z,-4.42
2023-02-09T23:52:11.015Z,-4.37
2023-02-09T23:54:37.405Z,-4.36
2023-02-09T23:57:03.739Z,-4.38
2023-02-09T23:59:30.170Z,-4.39
